Time;durP1;ratioP1;P1;durP2;ratioP2;P2;SDS_P1;SDS_P2;PMS_P1;PMS_P2;Temp;Humidity;BMP_temperature;BMP_pressure;BME280_temperature;BME280_humidity;BME280_pressure;Samples;Min_cycle;Max_cycle;Signal;HPM_P1;HPM_P2
2023/01/01 00:01:28;;;;;;;;;;;15.10;99.90;;;;;;5046481;28;19916;-76
2023/01/01 00:03:55;;;;;;;;;;;15.10;99.90;;;;;;5047479;28;19925;-73
2023/01/01 00:06:20;;;;;;;;;;;15.10;99.90;;;;;;5053775;28;19921;-76
2023/01/01 00:08:46;;;;;;;;;;;15.10;99.90;;;;;;5040302;28;20458;-77
2023/01/01 00:11:12;;;;;;;;;;;15.10;99.90;;;;;;5045163;28;19959;-74
2023/01/01 00:13:38;;;;;;;;;;;15.10;99.90;;;;;;5046643;28;19909;-72
2023/01/01 00:16:08;;;;;;;;;;;15.10;99.90;;;;;;5046245;28;19908;-75
2023/01/01 00:18:33;;;;;;;;;;;15.10;99.90;;;;;;5043593;28;20441;-72
2023/01/01 00:21:10;;;;;;;;;;;15.10;99.90;;;;;;5046885;28;20004;-76
2023/01/01 00:23:35;;;;;;;;;;;15.00;99.90;;;;;;5045366;28;19912;-75
2023/01/01 00:26:07;;;;;;;;;;;15.00;99.90;;;;;;5048591;28;19913;-74
2023/01/01 00:28:33;;;;;;;;;;;15.00;99.90;;;;;;5045275;28;19920;-73
2023/01/01 00:30:58;;;;;;;;;;;15.00;99.90;;;;;;5044546;28;20321;-73
2023/01/01 00:33:24;;;;;;;;;;;15.00;99.90;;;;;;5044723;28;19917;-76
2023/01/01 00:35:49;;;;;;;;;;;15.00;99.90;;;;;;5042659;28;19920;-76
2023/01/01 00:38:15;;;;;;;;;;;15.00;99.90;;;;;;5043039;28;19913;-73
2023/01/01 00:40:40;;;;;;;;;;;15.00;99.90;;;;;;5042268;28;20039;-73
2023/01/01 00:43:06;;;;;;;;;;;15.00;99.90;;;;;;5037660;28;20333;-74
2023/01/01 00:45:31;;;;;;;;;;;15.00;99.90;;;;;;5042900;28;19940;-73
2023/01/01 00:47:57;;;;;;;;;;;15.00;99.90;;;;;;5045455;28;19913;-74
2023/01/01 00:50:22;;;;;;;;;;;15.00;99.90;;;;;;5040968;28;19912;-74
2023/01/01 00:52:48;;;;;;;;;;;15.00;99.90;;;;;;5034866;28;20913;-75
2023/01/01 00:55:14;;;;;;;;;;;15.00;99.90;;;;;;5037866;28;19908;-74
2023/01/01 00:57:39;;;;;;;;;;;15.00;99.90;;;;;;5041922;28;19917;-74
2023/01/01 01:00:05;;;;;;;;;;;15.00;99.90;;;;;;5041016;28;19959;-73
2023/01/01 01:02:31;;;;;;;;;;;14.90;99.90;;;;;;5050395;28;19912;-76
2023/01/01 01:04:57;;;;;;;;;;;14.90;99.90;;;;;;5060272;28;20008;-77
2023/01/01 01:07:22;;;;;;;;;;;14.90;99.90;;;;;;5058934;28;19912;-73
2023/01/01 01:09:47;;;;;;;;;;;14.90;99.90;;;;;;5050964;28;19917;-75
2023/01/01 01:12:13;;;;;;;;;;;14.90;99.90;;;;;;5045243;28;19968;-76
2023/01/01 01:14:38;;;;;;;;;;;14.90;99.90;;;;;;5044037;28;19944;-74
2023/01/01 01:17:04;;;;;;;;;;;14.90;99.90;;;;;;5041028;28;19916;-72
2023/01/01 01:19:29;;;;;;;;;;;14.90;99.90;;;;;;5046120;28;19913;-76
2023/01/01 01:21:55;;;;;;;;;;;14.80;99.90;;;;;;5049291;28;20058;-73
2023/01/01 01:24:20;;;;;;;;;;;14.80;99.90;;;;;;5044590;28;19999;-73
2023/01/01 01:26:46;;;;;;;;;;;14.80;99.90;;;;;;5047770;28;19920;-75
2023/01/01 01:29:11;;;;;;;;;;;14.70;99.90;;;;;;5035481;28;19919;-74
2023/01/01 01:31:36;;;;;;;;;;;14.80;99.90;;;;;;5041329;28;20288;-74
2023/01/01 01:34:02;;;;;;;;;;;14.70;99.90;;;;;;5039129;28;19909;-75
2023/01/01 01:36:27;;;;;;;;;;;14.70;99.90;;;;;;5044388;28;20007;-73
2023/01/01 01:38:53;;;;;;;;;;;14.70;99.90;;;;;;5041823;28;19935;-74
2023/01/01 01:41:20;;;;;;;;;;;14.60;99.90;;;;;;5037403;28;19921;-78
2023/01/01 01:43:53;;;;;;;;;;;14.70;99.90;;;;;;5041406;28;19912;-75
2023/01/01 01:46:21;;;;;;;;;;;14.70;99.90;;;;;;5042882;28;19924;-74
2023/01/01 01:48:48;;;;;;;;;;;14.60;99.90;;;;;;5041666;28;19975;-73
2023/01/01 01:51:14;;;;;;;;;;;14.60;99.90;;;;;;5043722;28;19996;-73
2023/01/01 01:53:43;;;;;;;;;;;14.60;99.90;;;;;;5039493;28;20359;-73
2023/01/01 01:56:14;;;;;;;;;;;14.60;99.90;;;;;;5045622;28;19922;-74
2023/01/01 01:58:39;;;;;;;;;;;14.60;99.90;;;;;;5040938;28;20373;-76
2023/01/01 02:01:05;;;;;;;;;;;14.60;99.90;;;;;;5038231;28;19913;-74
2023/01/01 02:03:30;;;;;;;;;;;14.60;99.90;;;;;;5049080;28;19959;-73
2023/01/01 02:05:56;;;;;;;;;;;14.60;99.90;;;;;;5044570;28;19920;-74
2023/01/01 02:08:22;;;;;;;;;;;14.60;99.90;;;;;;5040334;28;19943;-75
2023/01/01 02:10:47;;;;;;;;;;;14.60;99.90;;;;;;5034788;28;20382;-73
2023/01/01 02:13:13;;;;;;;;;;;14.60;99.90;;;;;;5042136;28;19917;-75
2023/01/01 02:15:43;;;;;;;;;;;14.60;99.90;;;;;;5036873;28;20399;-79
2023/01/01 02:18:10;;;;;;;;;;;14.60;99.90;;;;;;5038505;28;20277;-74
2023/01/01 02:20:38;;;;;;;;;;;14.60;99.90;;;;;;5045131;28;20352;-75
2023/01/01 02:23:23;;;;;;;;;;;14.60;99.90;;;;;;5037247;28;20808;-72
2023/01/01 02:25:55;;;;;;;;;;;14.60;99.90;;;;;;5045173;28;19921;-75
2023/01/01 02:28:39;;;;;;;;;;;14.60;99.90;;;;;;5044425;28;19927;-73
2023/01/01 02:31:05;;;;;;;;;;;14.60;99.90;;;;;;5043148;28;19951;-75
2023/01/01 02:33:31;;;;;;;;;;;14.50;99.90;;;;;;5042366;28;19955;-74
2023/01/01 02:36:01;;;;;;;;;;;14.60;99.90;;;;;;5046631;28;19909;-73
2023/01/01 02:38:36;;;;;;;;;;;14.60;99.90;;;;;;5040651;28;19913;-76
2023/01/01 02:41:04;;;;;;;;;;;14.50;99.90;;;;;;5033463;28;20387;-76
2023/01/01 02:43:30;;;;;;;;;;;14.60;99.90;;;;;;5033669;28;20555;-74
2023/01/01 02:45:55;;;;;;;;;;;14.50;99.90;;;;;;5035372;28;19975;-74
2023/01/01 02:48:39;;;;;;;;;;;14.40;99.90;;;;;;5035135;28;19925;-75
2023/01/01 02:51:23;;;;;;;;;;;14.50;99.90;;;;;;5045449;28;19920;-74
2023/01/01 02:54:07;;;;;;;;;;;14.50;99.90;;;;;;5042256;28;19999;-74
2023/01/01 02:56:53;;;;;;;;;;;14.40;99.90;;;;;;5045530;28;19913;-72
2023/01/01 03:02:12;;;;;;;;;;;14.50;99.90;;;;;;5051157;28;19916;-74
2023/01/01 03:04:46;;;;;;;;;;;14.50;99.90;;;;;;5048345;28;19917;-76
2023/01/01 03:07:20;;;;;;;;;;;14.40;99.90;;;;;;5047620;28;19909;-75
2023/01/01 03:09:49;;;;;;;;;;;14.40;99.90;;;;;;5049591;28;19919;-76
2023/01/01 03:12:17;;;;;;;;;;;14.40;99.90;;;;;;5051323;28;19913;-74
2023/01/01 03:14:45;;;;;;;;;;;14.40;99.90;;;;;;5040636;28;19963;-73
2023/01/01 03:17:11;;;;;;;;;;;14.40;99.90;;;;;;5036590;28;19917;-74
2023/01/01 03:19:37;;;;;;;;;;;14.30;99.90;;;;;;5035965;28;19909;-74
2023/01/01 03:22:07;;;;;;;;;;;14.30;99.90;;;;;;5038994;28;19909;-75
2023/01/01 03:24:50;;;;;;;;;;;14.30;99.90;;;;;;5043499;28;19913;-75
2023/01/01 03:27:16;;;;;;;;;;;14.30;99.90;;;;;;5040390;28;19919;-76
2023/01/01 03:29:42;;;;;;;;;;;14.30;99.90;;;;;;5044967;28;19913;-73
2023/01/01 03:32:09;;;;;;;;;;;14.30;99.90;;;;;;5042343;28;19913;-75
2023/01/01 03:34:37;;;;;;;;;;;14.30;99.90;;;;;;5043385;28;20521;-76
2023/01/01 03:37:05;;;;;;;;;;;14.30;99.90;;;;;;5043627;28;19909;-75
2023/01/01 03:39:34;;;;;;;;;;;14.30;99.90;;;;;;5045769;28;19916;-76
2023/01/01 03:42:06;;;;;;;;;;;14.30;99.90;;;;;;5038526;28;19991;-76
2023/01/01 03:44:34;;;;;;;;;;;14.30;99.90;;;;;;5041429;28;19912;-73
2023/01/01 03:47:00;;;;;;;;;;;14.30;99.90;;;;;;5040539;28;19913;-74
2023/01/01 03:49:26;;;;;;;;;;;14.30;99.90;;;;;;5036267;28;19913;-75
2023/01/01 03:52:00;;;;;;;;;;;14.30;99.90;;;;;;5034995;28;20008;-74
2023/01/01 03:54:36;;;;;;;;;;;14.10;99.90;;;;;;5043798;28;19955;-76
2023/01/01 03:57:20;;;;;;;;;;;13.60;99.90;;;;;;5042225;28;20585;-78
2023/01/01 03:59:55;;;;;;;;;;;13.30;99.90;;;;;;5032227;28;19913;-75
2023/01/01 04:02:25;;;;;;;;;;;13.10;99.90;;;;;;5036966;28;19909;-77
2023/01/01 04:04:51;;;;;;;;;;;13.00;99.90;;;;;;5036414;28;20378;-76
2023/01/01 04:07:16;;;;;;;;;;;12.90;99.90;;;;;;5037526;28;19920;-75
2023/01/01 04:09:45;;;;;;;;;;;12.80;99.90;;;;;;5046104;28;19996;-76
2023/01/01 04:12:11;;;;;;;;;;;12.80;99.90;;;;;;5039957;28;19916;-75
2023/01/01 04:14:38;;;;;;;;;;;12.80;99.90;;;;;;5039693;28;19905;-76
2023/01/01 04:17:04;;;;;;;;;;;12.80;99.90;;;;;;5039269;28;19952;-75
2023/01/01 04:19:30;;;;;;;;;;;12.80;99.90;;;;;;5039777;28;19913;-76
2023/01/01 04:21:56;;;;;;;;;;;12.80;99.90;;;;;;5044638;28;19928;-76
2023/01/01 04:24:22;;;;;;;;;;;12.80;99.90;;;;;;5041351;28;19952;-76
2023/01/01 04:26:48;;;;;;;;;;;12.80;99.90;;;;;;5036101;28;19932;-75
2023/01/01 04:29:13;;;;;;;;;;;12.90;99.90;;;;;;5026094;28;19909;-74
2023/01/01 04:31:39;;;;;;;;;;;12.90;99.90;;;;;;5032410;28;19916;-75
2023/01/01 04:34:04;;;;;;;;;;;12.90;99.90;;;;;;5028144;28;19909;-75
2023/01/01 04:36:30;;;;;;;;;;;12.90;99.90;;;;;;5035095;28;19995;-77
2023/01/01 04:38:55;;;;;;;;;;;12.90;99.90;;;;;;5036589;28;20421;-73
2023/01/01 04:41:21;;;;;;;;;;;13.00;99.90;;;;;;5041482;28;20254;-74
2023/01/01 04:43:50;;;;;;;;;;;13.00;99.90;;;;;;5039236;28;19909;-73
2023/01/01 04:46:16;;;;;;;;;;;13.10;99.90;;;;;;5041888;28;19944;-75
2023/01/01 04:48:41;;;;;;;;;;;13.10;99.90;;;;;;5037116;28;20008;-74
2023/01/01 04:51:09;;;;;;;;;;;13.10;99.90;;;;;;5042970;28;20320;-76
2023/01/01 04:53:34;;;;;;;;;;;13.10;99.90;;;;;;5034425;28;19995;-73
2023/01/01 04:56:06;;;;;;;;;;;13.10;99.90;;;;;;5042711;28;19976;-75
2023/01/01 04:58:32;;;;;;;;;;;13.10;99.90;;;;;;5036693;28;19919;-75
2023/01/01 05:00:57;;;;;;;;;;;13.10;99.90;;;;;;5039908;28;19905;-76
2023/01/01 05:03:23;;;;;;;;;;;13.00;99.90;;;;;;5044244;28;20163;-75
2023/01/01 05:05:58;;;;;;;;;;;13.00;99.90;;;;;;5046326;28;19924;-75
2023/01/01 05:08:23;;;;;;;;;;;13.00;99.90;;;;;;5039234;28;20256;-75
2023/01/01 05:10:49;;;;;;;;;;;13.00;99.90;;;;;;5036137;28;19919;-74
2023/01/01 05:13:16;;;;;;;;;;;12.90;99.90;;;;;;5036858;28;20335;-74
2023/01/01 05:15:42;;;;;;;;;;;12.90;99.90;;;;;;5041344;28;20398;-75
2023/01/01 05:18:07;;;;;;;;;;;12.90;99.90;;;;;;5037181;28;19924;-74
2023/01/01 05:20:33;;;;;;;;;;;12.90;99.90;;;;;;5041524;28;19908;-75
2023/01/01 05:22:58;;;;;;;;;;;12.90;99.90;;;;;;5040022;28;20368;-75
2023/01/01 05:25:23;;;;;;;;;;;12.90;99.90;;;;;;5040062;28;19931;-76
2023/01/01 05:27:49;;;;;;;;;;;12.90;99.90;;;;;;5056965;28;20075;-75
2023/01/01 05:30:15;;;;;;;;;;;12.90;99.90;;;;;;5059969;28;19923;-75
2023/01/01 05:32:41;;;;;;;;;;;12.80;99.90;;;;;;5043023;28;19908;-75
2023/01/01 05:35:06;;;;;;;;;;;12.80;99.90;;;;;;5034416;28;19931;-74
2023/01/01 05:37:32;;;;;;;;;;;12.70;99.90;;;;;;5038593;28;19909;-74
2023/01/01 05:39:57;;;;;;;;;;;12.70;99.90;;;;;;5044718;28;19956;-75
2023/01/01 05:42:23;;;;;;;;;;;12.70;99.90;;;;;;5032874;28;19905;-76
2023/01/01 05:44:48;;;;;;;;;;;12.60;99.90;;;;;;5042222;28;19995;-75
2023/01/01 05:47:16;;;;;;;;;;;12.60;99.90;;;;;;5039963;28;19956;-73
2023/01/01 05:49:41;;;;;;;;;;;12.60;99.90;;;;;;5034945;28;19917;-74
2023/01/01 05:52:07;;;;;;;;;;;12.50;99.90;;;;;;5039405;28;20490;-75
2023/01/01 05:54:32;;;;;;;;;;;12.60;99.90;;;;;;5036980;28;19909;-77
2023/01/01 05:56:58;;;;;;;;;;;12.60;99.90;;;;;;5037113;28;19905;-79
2023/01/01 05:59:23;;;;;;;;;;;12.50;99.90;;;;;;5037918;28;19917;-76
2023/01/01 06:01:49;;;;;;;;;;;12.50;99.90;;;;;;5044506;28;19986;-75
2023/01/01 06:04:14;;;;;;;;;;;12.50;99.90;;;;;;5042169;28;19913;-74
2023/01/01 06:06:40;;;;;;;;;;;12.50;99.90;;;;;;5040608;28;20299;-74
2023/01/01 06:09:05;;;;;;;;;;;12.50;99.90;;;;;;5023657;28;19909;-76
2023/01/01 06:11:31;;;;;;;;;;;12.40;99.90;;;;;;5042816;28;19905;-76
2023/01/01 06:13:57;;;;;;;;;;;12.40;99.90;;;;;;5031183;28;19906;-75
2023/01/01 06:16:23;;;;;;;;;;;12.40;99.90;;;;;;5040400;28;19904;-76
2023/01/01 06:18:49;;;;;;;;;;;12.40;99.90;;;;;;5037925;28;19917;-74
2023/01/01 06:21:19;;;;;;;;;;;12.40;99.90;;;;;;5038450;28;20007;-76
2023/01/01 06:23:44;;;;;;;;;;;12.40;99.90;;;;;;5029175;28;19905;-77
2023/01/01 06:26:11;;;;;;;;;;;12.40;99.90;;;;;;5034002;28;19913;-73
2023/01/01 06:28:36;;;;;;;;;;;12.30;99.90;;;;;;5033688;28;19913;-75
2023/01/01 06:31:03;;;;;;;;;;;12.40;99.90;;;;;;5041236;28;20090;-74
2023/01/01 06:33:28;;;;;;;;;;;12.30;99.90;;;;;;5042330;28;20414;-76
2023/01/01 06:35:54;;;;;;;;;;;12.30;99.90;;;;;;5031602;28;19912;-77
2023/01/01 06:38:19;;;;;;;;;;;12.30;99.90;;;;;;5026705;28;19905;-73
2023/01/01 06:40:54;;;;;;;;;;;12.20;99.90;;;;;;5033798;28;19904;-77
2023/01/01 06:43:19;;;;;;;;;;;12.20;99.90;;;;;;5028400;28;19924;-74
2023/01/01 06:45:45;;;;;;;;;;;12.20;99.90;;;;;;5034339;28;19992;-77
2023/01/01 06:48:10;;;;;;;;;;;12.20;99.90;;;;;;5031792;28;19950;-75
2023/01/01 06:50:36;;;;;;;;;;;12.20;99.90;;;;;;5042245;28;19999;-75
2023/01/01 06:53:01;;;;;;;;;;;12.10;99.90;;;;;;5040312;28;19912;-73
2023/01/01 06:55:27;;;;;;;;;;;12.00;99.90;;;;;;5041626;28;19912;-73
2023/01/01 06:57:52;;;;;;;;;;;12.00;99.90;;;;;;5033811;28;19936;-75
2023/01/01 07:00:18;;;;;;;;;;;12.00;99.90;;;;;;5036368;28;19909;-74
2023/01/01 07:02:43;;;;;;;;;;;12.00;99.90;;;;;;5030988;28;20003;-75
2023/01/01 07:05:08;;;;;;;;;;;12.00;99.90;;;;;;5047516;28;20342;-74
2023/01/01 07:07:34;;;;;;;;;;;12.00;99.90;;;;;;5045441;28;19963;-75
2023/01/01 07:09:59;;;;;;;;;;;12.00;99.90;;;;;;5060251;28;19905;-76
2023/01/01 07:12:25;;;;;;;;;;;11.90;99.90;;;;;;5065924;28;19909;-78
2023/01/01 07:14:50;;;;;;;;;;;12.00;99.90;;;;;;5060640;28;19939;-74
2023/01/01 07:17:16;;;;;;;;;;;11.90;99.90;;;;;;5048787;28;19913;-75
2023/01/01 07:19:41;;;;;;;;;;;11.90;99.90;;;;;;5052440;28;19956;-77
2023/01/01 07:22:08;;;;;;;;;;;11.90;99.90;;;;;;5060564;28;19913;-75
2023/01/01 07:24:34;;;;;;;;;;;11.90;99.90;;;;;;5061022;28;19915;-77
2023/01/01 07:26:59;;;;;;;;;;;11.90;99.90;;;;;;5054277;28;19913;-77
2023/01/01 07:29:25;;;;;;;;;;;11.80;99.90;;;;;;5052429;28;19909;-76
2023/01/01 07:31:50;;;;;;;;;;;11.80;99.90;;;;;;5047471;28;19920;-76
2023/01/01 07:34:18;;;;;;;;;;;11.70;99.90;;;;;;5055905;28;20600;-74
2023/01/01 07:36:43;;;;;;;;;;;11.70;99.90;;;;;;5038364;28;19952;-75
2023/01/01 07:39:09;;;;;;;;;;;11.70;99.90;;;;;;5037474;28;20021;-76
2023/01/01 07:41:35;;;;;;;;;;;11.70;99.90;;;;;;5038855;28;19913;-76
2023/01/01 07:44:00;;;;;;;;;;;11.60;99.90;;;;;;5035804;28;19917;-74
2023/01/01 07:46:26;;;;;;;;;;;11.60;99.90;;;;;;5043305;28;20523;-76
2023/01/01 07:48:51;;;;;;;;;;;11.60;99.90;;;;;;5034763;28;20441;-74
2023/01/01 07:51:17;;;;;;;;;;;11.60;99.90;;;;;;5033896;28;19921;-74
2023/01/01 07:53:42;;;;;;;;;;;11.60;99.90;;;;;;5046534;28;19959;-73
2023/01/01 07:56:08;;;;;;;;;;;11.70;99.90;;;;;;5045752;28;19996;-72
2023/01/01 07:58:33;;;;;;;;;;;11.60;99.90;;;;;;5059303;28;19916;-74
2023/01/01 08:00:59;;;;;;;;;;;11.60;99.90;;;;;;5049364;28;19913;-75
2023/01/01 08:03:24;;;;;;;;;;;11.60;99.90;;;;;;5057464;28;20027;-76
2023/01/01 08:05:49;;;;;;;;;;;11.60;99.90;;;;;;5050610;28;20356;-77
2023/01/01 08:08:15;;;;;;;;;;;11.60;99.90;;;;;;5051834;28;19909;-74
2023/01/01 08:10:40;;;;;;;;;;;11.60;99.90;;;;;;5044434;28;19913;-75
2023/01/01 08:13:07;;;;;;;;;;;11.60;99.90;;;;;;5045953;28;20264;-73
2023/01/01 08:15:32;;;;;;;;;;;11.60;99.90;;;;;;5041809;28;19917;-75
2023/01/01 08:17:59;;;;;;;;;;;11.60;99.90;;;;;;5046302;28;19913;-73
2023/01/01 08:20:25;;;;;;;;;;;11.60;99.90;;;;;;5045648;28;20385;-73
2023/01/01 08:22:50;;;;;;;;;;;11.60;99.90;;;;;;5042629;28;19928;-76
2023/01/01 08:25:16;;;;;;;;;;;11.60;99.90;;;;;;5054041;28;19913;-76
2023/01/01 08:27:41;;;;;;;;;;;11.60;99.90;;;;;;5058210;28;20573;-71
2023/01/01 08:30:08;;;;;;;;;;;11.70;99.90;;;;;;5057502;28;20278;-74
2023/01/01 08:32:34;;;;;;;;;;;11.70;99.90;;;;;;5051698;28;19913;-76
2023/01/01 08:34:59;;;;;;;;;;;11.70;99.90;;;;;;5053353;28;20008;-76
2023/01/01 08:37:25;;;;;;;;;;;11.70;99.90;;;;;;5056101;28;19916;-75
2023/01/01 08:39:51;;;;;;;;;;;11.70;99.90;;;;;;5054779;28;19921;-74
2023/01/01 08:42:16;;;;;;;;;;;11.80;99.90;;;;;;5057530;28;20117;-78
2023/01/01 08:44:42;;;;;;;;;;;11.80;99.90;;;;;;5054416;28;19913;-76
2023/01/01 08:47:18;;;;;;;;;;;11.80;99.90;;;;;;5053914;28;20147;-75
2023/01/01 08:49:43;;;;;;;;;;;11.80;99.90;;;;;;5052685;28;19917;-74
2023/01/01 08:52:09;;;;;;;;;;;11.80;99.90;;;;;;5054587;28;19920;-76
2023/01/01 08:54:35;;;;;;;;;;;11.90;99.90;;;;;;5056938;28;19917;-75
2023/01/01 08:57:00;;;;;;;;;;;12.00;99.90;;;;;;5050637;28;19967;-78
2023/01/01 08:59:26;;;;;;;;;;;12.00;99.90;;;;;;5053622;28;19908;-76
2023/01/01 09:01:51;;;;;;;;;;;11.90;99.90;;;;;;5051765;28;19916;-80
2023/01/01 09:04:16;;;;;;;;;;;11.90;99.90;;;;;;5048698;28;20355;-76
2023/01/01 09:06:42;;;;;;;;;;;11.90;99.90;;;;;;5050169;28;19920;-76
2023/01/01 09:09:07;;;;;;;;;;;11.90;99.90;;;;;;5050264;28;20518;-76
2023/01/01 09:11:33;;;;;;;;;;;11.90;99.90;;;;;;5052035;28;20003;-78
2023/01/01 09:13:58;;;;;;;;;;;11.90;99.90;;;;;;5053333;28;19924;-76
2023/01/01 09:16:24;;;;;;;;;;;11.90;99.90;;;;;;5056257;28;19908;-73
2023/01/01 09:18:49;;;;;;;;;;;11.90;99.90;;;;;;5051275;28;19913;-74
2023/01/01 09:21:15;;;;;;;;;;;11.90;99.90;;;;;;5057946;28;19935;-77
2023/01/01 09:23:40;;;;;;;;;;;12.00;99.90;;;;;;5050397;28;19916;-76
2023/01/01 09:26:07;;;;;;;;;;;12.10;99.90;;;;;;5054642;28;19928;-76
2023/01/01 09:28:34;;;;;;;;;;;12.10;99.90;;;;;;5052076;28;19992;-76
2023/01/01 09:31:00;;;;;;;;;;;12.10;99.90;;;;;;5053684;28;19913;-76
2023/01/01 09:33:26;;;;;;;;;;;12.10;99.90;;;;;;5056822;28;19936;-75
2023/01/01 09:35:51;;;;;;;;;;;12.10;99.90;;;;;;5058502;28;20003;-76
2023/01/01 09:38:18;;;;;;;;;;;12.10;99.90;;;;;;5054255;28;19947;-78
2023/01/01 09:40:48;;;;;;;;;;;12.20;99.90;;;;;;5056665;28;19915;-79
2023/01/01 09:43:13;;;;;;;;;;;12.10;99.90;;;;;;5052599;28;19920;-77
2023/01/01 09:45:52;;;;;;;;;;;12.20;99.90;;;;;;5056929;28;19912;-74
2023/01/01 09:48:17;;;;;;;;;;;12.20;99.90;;;;;;5052772;28;19913;-77
2023/01/01 09:50:44;;;;;;;;;;;12.20;99.90;;;;;;5058406;28;20503;-75
2023/01/01 09:53:12;;;;;;;;;;;12.20;99.90;;;;;;5059466;28;19947;-73
2023/01/01 09:55:57;;;;;;;;;;;12.20;99.90;;;;;;5057210;28;19912;-76
2023/01/01 09:58:24;;;;;;;;;;;12.20;99.90;;;;;;5055086;28;19917;-75
2023/01/01 10:00:52;;;;;;;;;;;12.30;99.90;;;;;;5059120;28;19944;-77
2023/01/01 10:03:23;;;;;;;;;;;12.30;99.90;;;;;;5054423;28;19927;-78
2023/01/01 10:05:55;;;;;;;;;;;12.30;99.90;;;;;;5055963;28;19940;-77
2023/01/01 10:08:41;;;;;;;;;;;12.30;99.90;;;;;;5059147;28;19951;-77
2023/01/01 10:11:17;;;;;;;;;;;12.30;99.90;;;;;;5010200;28;19917;-76
2023/01/01 10:13:44;;;;;;;;;;;12.30;99.90;;;;;;5048381;28;19917;-77
2023/01/01 10:16:35;;;;;;;;;;;12.40;99.90;;;;;;5047159;28;19936;-74
2023/01/01 10:19:21;;;;;;;;;;;12.40;99.90;;;;;;5050991;28;19921;-74
2023/01/01 10:21:48;;;;;;;;;;;12.40;99.90;;;;;;5044492;28;19989;-75
2023/01/01 10:24:30;;;;;;;;;;;12.40;99.90;;;;;;5052584;28;19913;-75
2023/01/01 10:26:56;;;;;;;;;;;12.50;99.90;;;;;;5060103;28;19944;-77
2023/01/01 10:29:30;;;;;;;;;;;12.60;99.90;;;;;;5060410;28;20095;-77
2023/01/01 10:31:56;;;;;;;;;;;12.60;99.90;;;;;;5058954;28;19944;-78
2023/01/01 10:34:22;;;;;;;;;;;12.70;99.90;;;;;;5053869;28;19913;-77
2023/01/01 10:36:50;;;;;;;;;;;12.70;99.90;;;;;;5054095;28;20125;-78
2023/01/01 10:39:16;;;;;;;;;;;12.70;99.90;;;;;;5049026;28;19924;-76
2023/01/01 10:41:42;;;;;;;;;;;12.70;99.90;;;;;;5049971;28;19925;-77
2023/01/01 10:44:09;;;;;;;;;;;12.60;99.90;;;;;;5048365;28;20175;-77
2023/01/01 10:46:35;;;;;;;;;;;12.60;99.90;;;;;;5052996;28;19928;-75
2023/01/01 10:49:10;;;;;;;;;;;12.50;99.90;;;;;;5045445;28;19917;-75
2023/01/01 10:51:46;;;;;;;;;;;12.60;99.90;;;;;;5045663;28;20627;-78
2023/01/01 10:54:23;;;;;;;;;;;12.60;99.90;;;;;;5039936;28;19916;-78
2023/01/01 10:56:49;;;;;;;;;;;12.60;99.90;;;;;;5046914;28;20422;-76
2023/01/01 10:59:31;;;;;;;;;;;12.70;99.90;;;;;;5044155;28;19909;-75
2023/01/01 11:02:15;;;;;;;;;;;12.80;99.90;;;;;;5041674;28;19911;-75
2023/01/01 11:04:40;;;;;;;;;;;12.70;99.90;;;;;;5040635;28;19952;-76
2023/01/01 11:07:06;;;;;;;;;;;12.70;99.90;;;;;;5024579;28;19955;-81
2023/01/01 11:09:35;;;;;;;;;;;12.80;99.90;;;;;;5045423;28;19913;-77
2023/01/01 11:12:05;;;;;;;;;;;12.80;99.90;;;;;;5043209;28;19923;-77
2023/01/01 11:14:36;;;;;;;;;;;12.90;99.90;;;;;;5040497;28;19917;-80
2023/01/01 11:17:01;;;;;;;;;;;12.90;99.90;;;;;;5048257;28;19909;-77
2023/01/01 11:19:28;;;;;;;;;;;12.90;99.90;;;;;;5039506;28;19916;-76
2023/01/01 11:21:54;;;;;;;;;;;13.00;99.90;;;;;;5056899;28;19936;-74
2023/01/01 11:24:19;;;;;;;;;;;13.00;99.90;;;;;;5048689;28;19927;-76
2023/01/01 11:26:45;;;;;;;;;;;13.00;99.90;;;;;;5047308;28;19928;-77
2023/01/01 11:29:16;;;;;;;;;;;13.00;99.90;;;;;;5044921;28;19939;-75
2023/01/01 11:31:44;;;;;;;;;;;13.00;99.90;;;;;;5046412;28;19913;-78
2023/01/01 11:34:24;;;;;;;;;;;13.00;99.90;;;;;;5056734;28;19924;-74
2023/01/01 11:36:50;;;;;;;;;;;13.00;99.90;;;;;;5046965;28;19920;-75
2023/01/01 11:39:19;;;;;;;;;;;13.00;99.90;;;;;;5047582;28;19983;-77
2023/01/01 11:41:49;;;;;;;;;;;13.00;99.90;;;;;;5056754;28;19909;-79
2023/01/01 11:44:28;;;;;;;;;;;13.00;99.90;;;;;;5043266;28;19912;-78
2023/01/01 11:46:54;;;;;;;;;;;13.00;99.90;;;;;;5045834;28;19924;-77
2023/01/01 11:49:24;;;;;;;;;;;13.10;99.90;;;;;;5046719;28;19913;-76
2023/01/01 11:51:49;;;;;;;;;;;13.10;99.90;;;;;;5047319;28;20071;-77
2023/01/01 11:54:37;;;;;;;;;;;13.20;99.90;;;;;;5043051;28;19952;-76
2023/01/01 11:57:08;;;;;;;;;;;13.30;99.90;;;;;;5040695;28;20482;-78
2023/01/01 11:59:45;;;;;;;;;;;13.30;99.90;;;;;;5049101;28;19924;-77
2023/01/01 12:02:19;;;;;;;;;;;13.30;99.90;;;;;;5041246;28;19913;-76
2023/01/01 12:04:49;;;;;;;;;;;13.40;99.90;;;;;;5058607;28;20607;-77
2023/01/01 12:07:16;;;;;;;;;;;13.50;99.90;;;;;;5047002;28;19913;-76
2023/01/01 12:10:05;;;;;;;;;;;13.50;99.90;;;;;;5036204;28;19912;-79
2023/01/01 12:12:37;;;;;;;;;;;13.60;99.90;;;;;;5034385;28;19916;-76
2023/01/01 12:15:02;;;;;;;;;;;13.60;99.90;;;;;;5036987;28;19967;-76
2023/01/01 12:17:28;;;;;;;;;;;13.80;99.90;;;;;;5036729;28;19909;-79
2023/01/01 12:19:53;;;;;;;;;;;13.80;99.90;;;;;;5045017;28;19913;-78
2023/01/01 12:22:19;;;;;;;;;;;13.70;99.90;;;;;;5031004;28;19971;-74
2023/01/01 12:24:48;;;;;;;;;;;13.60;99.90;;;;;;5038910;28;19913;-75
2023/01/01 12:27:19;;;;;;;;;;;13.60;99.90;;;;;;5036118;28;20306;-75
2023/01/01 12:30:02;;;;;;;;;;;13.60;99.90;;;;;;5050766;28;19909;-76
2023/01/01 12:32:43;;;;;;;;;;;13.50;99.90;;;;;;5044305;28;20013;-72
2023/01/01 12:35:22;;;;;;;;;;;13.50;99.90;;;;;;5039144;28;20053;-76
2023/01/01 12:38:02;;;;;;;;;;;13.40;99.90;;;;;;5045125;28;20338;-78
2023/01/01 12:40:31;;;;;;;;;;;13.40;99.90;;;;;;5041921;28;20000;-76
2023/01/01 12:43:01;;;;;;;;;;;13.30;99.90;;;;;;5032495;28;19913;-75
2023/01/01 12:45:29;;;;;;;;;;;13.20;99.90;;;;;;5036880;28;19921;-74
2023/01/01 12:48:11;;;;;;;;;;;13.30;99.90;;;;;;5034318;28;19917;-77
2023/01/01 12:50:39;;;;;;;;;;;13.30;99.90;;;;;;5046123;28;19919;-80
2023/01/01 12:53:14;;;;;;;;;;;13.40;99.90;;;;;;5038878;28;19917;-80
2023/01/01 12:55:58;;;;;;;;;;;13.40;99.90;;;;;;5044888;28;19924;-76
2023/01/01 12:58:31;;;;;;;;;;;13.30;99.90;;;;;;5037367;28;19916;-77
2023/01/01 13:01:04;;;;;;;;;;;13.30;99.90;;;;;;5035983;28;20485;-77
2023/01/01 13:03:38;;;;;;;;;;;13.30;99.90;;;;;;5047428;28;19913;-78
2023/01/01 13:06:05;;;;;;;;;;;13.40;99.90;;;;;;5049491;28;19942;-79
2023/01/01 13:08:31;;;;;;;;;;;13.30;99.90;;;;;;5049351;28;20337;-81
2023/01/01 13:10:57;;;;;;;;;;;13.40;99.90;;;;;;5048287;28;20390;-82
2023/01/01 13:13:23;;;;;;;;;;;13.40;99.90;;;;;;5047946;28;19917;-77
2023/01/01 13:15:51;;;;;;;;;;;13.40;99.90;;;;;;5043354;28;19959;-75
2023/01/01 13:18:18;;;;;;;;;;;13.40;99.90;;;;;;5042083;28;19923;-79
2023/01/01 13:20:54;;;;;;;;;;;13.50;99.90;;;;;;5044037;28;19917;-78
2023/01/01 13:23:35;;;;;;;;;;;13.40;99.90;;;;;;5039977;28;19921;-78
2023/01/01 13:26:21;;;;;;;;;;;13.40;99.90;;;;;;5046925;28;19919;-73
2023/01/01 13:28:56;;;;;;;;;;;13.40;99.90;;;;;;5029650;28;19909;-76
2023/01/01 13:31:37;;;;;;;;;;;13.30;99.90;;;;;;5043768;28;19919;-77
2023/01/01 13:34:21;;;;;;;;;;;13.30;99.90;;;;;;5043354;28;20462;-75
2023/01/01 13:36:46;;;;;;;;;;;13.30;99.90;;;;;;5041648;28;19942;-76
2023/01/01 13:39:32;;;;;;;;;;;13.20;99.90;;;;;;5048475;28;20059;-78
2023/01/01 13:41:57;;;;;;;;;;;13.20;99.90;;;;;;5045531;28;19916;-79
2023/01/01 13:44:23;;;;;;;;;;;13.20;99.90;;;;;;5044375;28;19993;-76
2023/01/01 13:46:59;;;;;;;;;;;13.20;99.90;;;;;;5041344;28;20032;-75
2023/01/01 13:49:46;;;;;;;;;;;13.20;99.90;;;;;;5044938;28;19944;-77
2023/01/01 13:52:11;;;;;;;;;;;13.20;99.90;;;;;;5046543;28;19909;-77
2023/01/01 13:54:40;;;;;;;;;;;13.20;99.90;;;;;;5039674;28;20257;-78
2023/01/01 13:57:08;;;;;;;;;;;13.10;99.90;;;;;;5045975;28;19916;-77
2023/01/01 13:59:43;;;;;;;;;;;13.00;99.90;;;;;;5050850;28;19909;-76
2023/01/01 14:02:27;;;;;;;;;;;13.10;99.90;;;;;;5047358;28;19913;-76
2023/01/01 14:04:58;;;;;;;;;;;13.10;99.90;;;;;;5053104;28;19916;-79
2023/01/01 14:07:40;;;;;;;;;;;13.10;99.90;;;;;;5051026;28;19987;-75
2023/01/01 14:10:15;;;;;;;;;;;13.10;99.90;;;;;;5057174;28;19923;-76
2023/01/01 14:12:40;;;;;;;;;;;13.20;99.90;;;;;;5055032;28;19913;-80
2023/01/01 14:15:18;;;;;;;;;;;13.10;99.90;;;;;;5054018;28;19967;-78
2023/01/01 14:17:44;;;;;;;;;;;13.10;99.90;;;;;;5064912;28;19920;-78
2023/01/01 14:20:13;;;;;;;;;;;13.10;99.90;;;;;;5061581;28;19917;-80
2023/01/01 14:22:39;;;;;;;;;;;13.10;99.90;;;;;;5061223;28;19998;-81
2023/01/01 14:25:04;;;;;;;;;;;13.10;99.90;;;;;;5055213;28;19998;-79
2023/01/01 14:27:31;;;;;;;;;;;13.10;99.90;;;;;;5048490;28;19944;-78